createdAt,value
2018-06-29T00:00:27.238Z,42.50
2018-06-29T00:01:01.612Z,42.60
2018-06-29T00:01:36.035Z,42.50
2018-06-29T00:02:09.671Z,42.50
2018-06-29T00:02:45.203Z,42.50
2018-06-29T00:03:20.302Z,42.50
2018-06-29T00:03:55.162Z,42.50
2018-06-29T00:04:30.422Z,42.40
2018-06-29T00:05:04.771Z,42.50
2018-06-29T00:05:38.719Z,42.50
2018-06-29T00:06:13.824Z,42.50
2018-06-29T00:06:48.061Z,42.50
2018-06-29T00:07:22.665Z,42.60
2018-06-29T00:07:58.134Z,42.50
2018-06-29T00:08:31.780Z,42.60
2018-06-29T00:09:08.517Z,42.60
2018-06-29T00:09:42.287Z,42.60
2018-06-29T00:10:23.960Z,42.60
2018-06-29T00:10:57.848Z,42.70
2018-06-29T00:11:31.432Z,42.70
2018-06-29T00:12:05.243Z,42.70
2018-06-29T00:12:38.843Z,42.70
2018-06-29T00:13:13.164Z,42.80
2018-06-29T00:13:46.802Z,42.70
2018-06-29T00:14:20.399Z,42.80
2018-06-29T00:14:54.119Z,42.70
2018-06-29T00:15:27.789Z,42.80
2018-06-29T00:16:03.356Z,42.80
2018-06-29T00:16:37.071Z,42.80
2018-06-29T00:17:10.676Z,42.80
2018-06-29T00:17:44.830Z,42.70
2018-06-29T00:18:18.530Z,43.50
2018-06-29T00:18:52.080Z,42.80
2018-06-29T00:19:25.707Z,42.80
2018-06-29T00:20:00.742Z,43.00
2018-06-29T00:20:34.436Z,43.10
2018-06-29T00:21:08.120Z,43.20
2018-06-29T00:21:43.472Z,43.20
2018-06-29T00:22:17.146Z,43.40
2018-06-29T00:22:50.727Z,43.20
2018-06-29T00:23:24.328Z,43.20
2018-06-29T00:23:57.959Z,43.30
2018-06-29T00:24:32.207Z,43.40
2018-06-29T00:25:05.851Z,43.40
2018-06-29T00:25:39.483Z,43.60
2018-06-29T00:26:14.952Z,43.60
2018-06-29T00:26:49.401Z,43.80
2018-06-29T00:27:23.028Z,43.80
2018-06-29T00:27:56.679Z,43.60
2018-06-29T00:28:30.388Z,43.50
2018-06-29T00:29:04.819Z,43.50
2018-06-29T00:29:38.405Z,43.60
2018-06-29T00:30:13.571Z,43.70
2018-06-29T00:30:47.195Z,43.70
2018-06-29T00:31:20.964Z,43.90
2018-06-29T00:31:55.205Z,43.80
2018-06-29T00:32:28.665Z,43.80
2018-06-29T00:33:02.391Z,43.90
2018-06-29T00:33:36.515Z,44.00
2018-06-29T00:34:11.181Z,43.90
2018-06-29T00:34:46.907Z,43.90
2018-06-29T00:35:20.478Z,43.80
2018-06-29T00:36:27.948Z,43.60
2018-06-29T00:37:01.580Z,43.50
2018-06-29T00:37:35.546Z,43.60
2018-06-29T00:38:09.216Z,43.60
2018-06-29T00:38:43.505Z,43.60
2018-06-29T00:39:17.091Z,43.70
2018-06-29T00:39:50.794Z,43.60
2018-06-29T00:40:24.417Z,43.60
2018-06-29T00:40:58.059Z,43.60
2018-06-29T00:41:32.300Z,43.70
2018-06-29T00:42:06.110Z,43.70
2018-06-29T00:42:40.454Z,43.90
2018-06-29T00:43:15.313Z,43.80
2018-06-29T00:43:49.480Z,43.80
2018-06-29T00:44:24.423Z,43.80
2018-06-29T00:44:58.142Z,43.80
2018-06-29T00:45:32.785Z,43.80
2018-06-29T00:46:07.216Z,43.80
2018-06-29T00:46:42.039Z,43.70
2018-06-29T00:47:15.630Z,43.70
2018-06-29T00:47:50.484Z,43.70
2018-06-29T00:48:24.145Z,43.70
2018-06-29T00:48:57.772Z,43.70
2018-06-29T00:49:32.299Z,43.80
2018-06-29T00:50:06.920Z,43.80
2018-06-29T00:50:40.534Z,43.80
2018-06-29T00:51:14.858Z,43.90
2018-06-29T00:51:48.627Z,44.00
2018-06-29T00:52:22.908Z,44.00
2018-06-29T00:52:56.844Z,44.00
2018-06-29T00:53:30.494Z,43.90
2018-06-29T00:54:04.772Z,43.90
2018-06-29T00:54:38.441Z,43.90
2018-06-29T00:55:12.068Z,44.00
2018-06-29T00:55:46.294Z,43.90
2018-06-29T00:56:20.526Z,43.90
2018-06-29T00:56:55.187Z,44.00
2018-06-29T00:57:28.816Z,44.10
2018-06-29T00:58:03.491Z,44.10
2018-06-29T00:58:37.720Z,44.10
2018-06-29T00:59:11.357Z,44.20
2018-06-29T00:59:46.482Z,44.30
2018-06-29T01:00:20.071Z,44.20
2018-06-29T01:00:54.415Z,44.30
2018-06-29T01:01:28.053Z,44.40
2018-06-29T01:02:02.311Z,44.40
2018-06-29T01:02:36.143Z,44.50
2018-06-29T01:03:09.787Z,44.50
2018-06-29T01:03:44.451Z,44.50
2018-06-29T01:04:18.155Z,44.60
2018-06-29T01:04:51.833Z,44.60
2018-06-29T01:05:26.329Z,44.60
2018-06-29T01:05:59.970Z,44.60
2018-06-29T01:06:34.123Z,44.70
2018-06-29T01:07:42.782Z,44.80
2018-06-29T01:08:17.024Z,44.80
2018-06-29T01:08:51.993Z,44.80
2018-06-29T01:09:26.252Z,44.80
2018-06-29T01:10:00.505Z,44.80
2018-06-29T01:10:34.908Z,44.80
2018-06-29T01:11:09.018Z,44.80
2018-06-29T01:11:45.205Z,44.90
2018-06-29T01:12:18.899Z,44.90
2018-06-29T01:12:53.444Z,44.90
2018-06-29T01:13:27.043Z,45.00
2018-06-29T01:14:00.886Z,45.10
2018-06-29T01:14:34.566Z,45.10
2018-06-29T01:15:08.963Z,45.10
2018-06-29T01:15:42.605Z,45.20
2018-06-29T01:16:16.646Z,45.30
2018-06-29T01:16:50.281Z,45.30
2018-06-29T01:17:23.968Z,45.30
2018-06-29T01:17:57.647Z,45.30
2018-06-29T01:18:31.260Z,45.30
2018-06-29T01:19:06.097Z,45.40
2018-06-29T01:19:39.714Z,45.50
2018-06-29T01:20:13.997Z,45.40
2018-06-29T01:20:47.572Z,45.40
2018-06-29T01:21:22.364Z,45.50
2018-06-29T01:21:55.957Z,45.50
2018-06-29T01:22:29.591Z,45.50
2018-06-29T01:23:03.259Z,45.50
2018-06-29T01:23:36.822Z,45.50
2018-06-29T01:24:12.093Z,45.60
2018-06-29T01:24:47.104Z,45.60
2018-06-29T01:25:20.728Z,45.60
2018-06-29T01:25:54.947Z,45.70
2018-06-29T01:26:29.301Z,45.80
2018-06-29T01:27:03.665Z,45.90
2018-06-29T01:27:38.169Z,45.90
2018-06-29T01:28:12.895Z,45.90
2018-06-29T01:28:47.155Z,46.50
2018-06-29T01:29:20.844Z,45.80
2018-06-29T01:29:54.472Z,45.90
2018-06-29T01:30:28.159Z,45.50
2018-06-29T01:31:01.797Z,45.90
2018-06-29T01:31:37.018Z,45.90
2018-06-29T01:32:11.362Z,45.90
2018-06-29T01:32:45.567Z,45.90
2018-06-29T01:33:19.567Z,45.90
2018-06-29T01:34:27.091Z,46.20
2018-06-29T01:35:01.586Z,46.00
2018-06-29T01:35:36.604Z,46.10
2018-06-29T01:36:10.802Z,46.10
2018-06-29T01:36:46.280Z,46.00
2018-06-29T01:37:21.083Z,45.90
2018-06-29T01:37:55.979Z,45.90
2018-06-29T01:38:30.893Z,46.00
2018-06-29T01:39:06.608Z,46.10
2018-06-29T01:39:40.554Z,46.00
2018-06-29T01:40:15.698Z,46.00
2018-06-29T01:40:49.322Z,46.00
2018-06-29T01:41:22.929Z,46.20
2018-06-29T01:41:56.703Z,46.10
2018-06-29T01:42:30.342Z,46.10
2018-06-29T01:43:03.966Z,46.40
2018-06-29T01:43:39.133Z,46.30
2018-06-29T01:44:12.717Z,46.30
2018-06-29T01:44:47.028Z,46.20
2018-06-29T01:45:21.753Z,46.20
2018-06-29T01:45:55.641Z,46.20
2018-06-29T01:46:29.248Z,46.10
2018-06-29T01:47:02.885Z,46.10
2018-06-29T01:47:36.617Z,46.10
2018-06-29T01:48:10.779Z,46.20
2018-06-29T01:48:45.750Z,46.30
2018-06-29T01:49:19.927Z,46.40
2018-06-29T01:49:53.513Z,46.50
2018-06-29T01:50:27.914Z,46.60
2018-06-29T01:51:01.983Z,46.70
2018-06-29T01:51:36.304Z,46.70
2018-06-29T01:52:09.975Z,46.70
2018-06-29T01:52:44.756Z,46.70
2018-06-29T01:53:18.868Z,46.80
2018-06-29T01:54:25.696Z,46.80
2018-06-29T01:54:59.285Z,46.90
2018-06-29T01:55:32.969Z,46.90
2018-06-29T01:56:06.591Z,46.80
2018-06-29T01:56:40.284Z,46.90
2018-06-29T01:57:15.304Z,46.90
2018-06-29T01:57:49.081Z,46.90
2018-06-29T01:58:22.665Z,46.90
2018-06-29T01:58:56.287Z,46.90
2018-06-29T01:59:30.536Z,46.90
2018-06-29T02:00:05.125Z,46.90
2018-06-29T02:00:39.164Z,46.90
2018-06-29T02:01:12.779Z,47.00
2018-06-29T02:01:46.441Z,47.00
2018-06-29T02:02:21.289Z,46.90
2018-06-29T02:02:54.862Z,47.10
2018-06-29T02:03:29.668Z,47.10
2018-06-29T02:04:03.303Z,47.10
2018-06-29T02:04:36.856Z,47.10
2018-06-29T02:05:10.533Z,47.10
2018-06-29T02:05:45.590Z,47.90
2018-06-29T02:06:19.771Z,47.00
2018-06-29T02:06:54.061Z,47.00
2018-06-29T02:07:27.625Z,47.10
2018-06-29T02:08:01.248Z,47.10
2018-06-29T02:08:34.856Z,47.20
2018-06-29T02:09:09.930Z,47.00
2018-06-29T02:09:44.605Z,47.00
2018-06-29T02:10:18.712Z,47.00
2018-06-29T02:10:52.420Z,47.10
2018-06-29T02:11:26.015Z,47.10
2018-06-29T02:11:59.616Z,47.20
2018-06-29T02:12:33.772Z,47.20
2018-06-29T02:13:08.339Z,47.10
2018-06-29T02:13:43.623Z,47.20
2018-06-29T02:14:17.923Z,47.10
2018-06-29T02:14:51.553Z,47.10
2018-06-29T02:15:25.327Z,47.20
2018-06-29T02:15:59.282Z,47.30
2018-06-29T02:16:33.823Z,47.30
2018-06-29T02:17:07.374Z,47.20
2018-06-29T02:17:41.005Z,47.40
2018-06-29T02:18:14.688Z,47.10
2018-06-29T02:18:48.237Z,47.30
2018-06-29T02:19:21.837Z,47.30
2018-06-29T02:19:55.445Z,47.20
2018-06-29T02:20:30.479Z,47.30
2018-06-29T02:21:04.040Z,47.40
2018-06-29T02:21:37.641Z,47.20
2018-06-29T02:22:11.500Z,47.20
2018-06-29T02:22:45.143Z,47.10
2018-06-29T02:23:20.310Z,47.90
2018-06-29T02:23:54.783Z,47.40
2018-06-29T02:24:28.338Z,47.20
2018-06-29T02:25:02.525Z,47.20
2018-06-29T02:25:36.217Z,47.20
2018-06-29T02:26:10.766Z,47.20
2018-06-29T02:26:44.402Z,47.20
2018-06-29T02:27:18.000Z,47.20
2018-06-29T02:27:52.253Z,47.20
2018-06-29T02:28:26.447Z,47.20
2018-06-29T02:28:59.994Z,47.40
2018-06-29T02:29:33.653Z,47.40
2018-06-29T02:30:07.886Z,47.40
2018-06-29T02:30:41.593Z,47.50
2018-06-29T02:31:15.163Z,47.40
2018-06-29T02:31:49.100Z,47.50
2018-06-29T02:32:23.030Z,47.50
2018-06-29T02:32:56.947Z,47.60
2018-06-29T02:33:30.593Z,47.60
2018-06-29T02:34:04.243Z,47.60
2018-06-29T02:34:38.988Z,47.60
2018-06-29T02:35:12.540Z,47.60
2018-06-29T02:35:48.461Z,47.60
2018-06-29T02:36:22.028Z,47.70
2018-06-29T02:36:56.029Z,47.70
2018-06-29T02:37:29.605Z,47.70
2018-06-29T02:38:03.340Z,47.80
2018-06-29T02:38:36.927Z,47.70
2018-06-29T02:39:12.420Z,47.70
2018-06-29T02:39:46.794Z,47.70
2018-06-29T02:40:20.957Z,47.70
2018-06-29T02:40:54.636Z,47.90
2018-06-29T02:41:28.270Z,47.90
2018-06-29T02:42:02.593Z,48.00
2018-06-29T02:42:36.167Z,48.00
2018-06-29T02:43:09.800Z,48.00
2018-06-29T02:43:43.420Z,48.10
2018-06-29T02:44:17.026Z,48.00
2018-06-29T02:44:51.656Z,48.00
2018-06-29T02:45:25.745Z,47.90
2018-06-29T02:46:00.297Z,48.00
2018-06-29T02:46:33.988Z,48.00
2018-06-29T02:47:07.707Z,48.10
2018-06-29T02:47:41.966Z,48.10
2018-06-29T02:48:15.549Z,48.10
2018-06-29T02:48:49.880Z,48.10
2018-06-29T02:49:58.024Z,48.10
2018-06-29T02:50:32.487Z,48.20
2018-06-29T02:51:06.915Z,48.20
2018-06-29T02:52:14.434Z,48.20
2018-06-29T02:52:48.720Z,48.30
2018-06-29T02:53:23.168Z,48.20
2018-06-29T02:53:56.799Z,48.20
2018-06-29T02:54:31.250Z,48.10
2018-06-29T02:55:05.469Z,48.10
2018-06-29T02:55:38.979Z,48.10
2018-06-29T02:56:12.593Z,48.10
2018-06-29T02:57:20.924Z,48.00
2018-06-29T02:57:55.198Z,48.00
2018-06-29T02:58:30.042Z,48.00
2018-06-29T02:59:03.711Z,47.90
2018-06-29T02:59:37.715Z,47.90
2018-06-29T03:00:12.295Z,48.00
2018-06-29T03:00:46.816Z,48.00
2018-06-29T03:01:21.620Z,47.90
2018-06-29T03:01:56.682Z,48.00
2018-06-29T03:02:30.912Z,48.10
2018-06-29T03:03:05.679Z,48.10
2018-06-29T03:03:39.890Z,48.20
2018-06-29T03:04:13.527Z,48.20
2018-06-29T03:04:48.516Z,48.20
2018-06-29T03:05:22.731Z,48.30
2018-06-29T03:05:57.013Z,48.30
2018-06-29T03:06:31.832Z,48.30
2018-06-29T03:07:06.861Z,48.40
2018-06-29T03:07:41.298Z,48.30
2018-06-29T03:08:16.471Z,48.30
2018-06-29T03:08:50.144Z,48.30
2018-06-29T03:09:23.758Z,48.40
2018-06-29T03:09:58.153Z,48.40
2018-06-29T03:10:31.748Z,48.50
2018-06-29T03:11:05.296Z,48.60
2018-06-29T03:11:39.569Z,48.60
2018-06-29T03:12:13.651Z,48.60
2018-06-29T03:12:47.236Z,48.60
2018-06-29T03:13:21.429Z,48.60
2018-06-29T03:13:56.215Z,48.60
2018-06-29T03:14:29.831Z,48.60
2018-06-29T03:15:04.098Z,48.50
2018-06-29T03:15:37.807Z,48.60
2018-06-29T03:16:11.412Z,48.60
2018-06-29T03:16:45.554Z,48.70
2018-06-29T03:17:19.697Z,48.80
2018-06-29T03:17:53.725Z,48.80
2018-06-29T03:18:27.340Z,48.90
2018-06-29T03:19:01.758Z,48.80
2018-06-29T03:19:35.945Z,48.80
2018-06-29T03:20:09.594Z,48.90
2018-06-29T03:20:43.236Z,48.90
2018-06-29T03:21:17.578Z,49.00
2018-06-29T03:21:51.333Z,48.80
2018-06-29T03:22:24.923Z,49.00
2018-06-29T03:22:58.524Z,49.00
2018-06-29T03:23:33.759Z,48.90
2018-06-29T03:24:07.703Z,49.00
2018-06-29T03:24:41.410Z,49.00
2018-06-29T03:25:15.644Z,49.00
2018-06-29T03:25:49.168Z,49.00
2018-06-29T03:26:23.345Z,49.00
2018-06-29T03:26:56.932Z,49.00
2018-06-29T03:27:30.481Z,49.00
2018-06-29T03:28:04.691Z,49.10
2018-06-29T03:28:38.279Z,49.00
2018-06-29T03:29:11.871Z,49.00
2018-06-29T03:29:45.455Z,49.00
2018-06-29T03:30:19.068Z,49.60
2018-06-29T03:30:52.687Z,49.20
2018-06-29T03:31:26.355Z,49.10
2018-06-29T03:32:00.555Z,49.10
2018-06-29T03:32:34.127Z,49.10
2018-06-29T03:33:07.770Z,49.50
2018-06-29T03:33:41.511Z,49.00
2018-06-29T03:34:16.554Z,48.90
2018-06-29T03:34:50.155Z,49.00
2018-06-29T03:35:23.763Z,49.00
2018-06-29T03:35:57.342Z,49.00
2018-06-29T03:36:31.265Z,49.00
2018-06-29T03:37:05.074Z,49.00
2018-06-29T03:37:39.931Z,49.10
2018-06-29T03:38:13.458Z,49.10
2018-06-29T03:38:47.128Z,49.00
2018-06-29T03:39:20.704Z,49.00
2018-06-29T03:39:54.379Z,49.10
2018-06-29T03:40:29.667Z,49.10
2018-06-29T03:41:03.332Z,49.20
2018-06-29T03:41:36.944Z,49.10
2018-06-29T03:42:10.567Z,49.20
2018-06-29T03:42:44.249Z,49.20
2018-06-29T03:43:18.303Z,49.20
2018-06-29T03:43:51.972Z,49.20
2018-06-29T03:44:25.600Z,49.20
2018-06-29T03:44:59.108Z,49.40
2018-06-29T03:45:32.987Z,49.40
2018-06-29T03:46:07.412Z,49.30
2018-06-29T03:46:41.066Z,49.20
2018-06-29T03:47:14.752Z,49.20
2018-06-29T03:47:48.421Z,49.30
2018-06-29T03:48:22.020Z,49.30
2018-06-29T03:48:55.616Z,49.20
2018-06-29T03:49:29.328Z,49.30
2018-06-29T03:50:04.014Z,49.40
2018-06-29T03:50:37.646Z,49.40
2018-06-29T03:51:11.259Z,49.50
2018-06-29T03:51:45.532Z,49.30
2018-06-29T03:52:19.743Z,49.30
2018-06-29T03:52:53.319Z,49.40
2018-06-29T03:54:00.840Z,50.40
2018-06-29T03:54:35.268Z,49.60
2018-06-29T03:55:08.831Z,49.60
2018-06-29T03:55:43.034Z,50.30
2018-06-29T03:56:16.956Z,49.60
2018-06-29T03:56:50.505Z,49.40
2018-06-29T03:57:26.186Z,49.50
2018-06-29T03:58:00.348Z,49.60
2018-06-29T03:58:33.969Z,49.50
2018-06-29T03:59:07.530Z,49.70
2018-06-29T03:59:41.645Z,49.70
2018-06-29T04:00:15.611Z,49.60
2018-06-29T04:00:49.403Z,49.60
2018-06-29T04:01:24.416Z,49.70
2018-06-29T04:01:58.604Z,49.80
2018-06-29T04:02:32.235Z,49.80
2018-06-29T04:03:06.580Z,49.80
2018-06-29T04:03:41.632Z,49.70
2018-06-29T04:04:15.209Z,49.80
2018-06-29T04:04:48.850Z,49.90
2018-06-29T04:05:23.182Z,49.90
2018-06-29T04:05:57.494Z,49.90
2018-06-29T04:06:31.848Z,49.80
2018-06-29T04:07:05.443Z,49.80
2018-06-29T04:07:39.723Z,49.80
2018-06-29T04:08:13.286Z,49.70
2018-06-29T04:08:47.796Z,50.00
2018-06-29T04:09:21.367Z,50.00
2018-06-29T04:09:54.992Z,49.80
2018-06-29T04:10:28.639Z,50.10
2018-06-29T04:11:02.926Z,50.00
2018-06-29T04:11:37.333Z,49.80
2018-06-29T04:12:10.887Z,50.00
2018-06-29T04:12:45.340Z,50.00
2018-06-29T04:13:19.044Z,49.80
2018-06-29T04:14:25.901Z,50.50
2018-06-29T04:14:59.496Z,49.80
2018-06-29T04:15:33.209Z,50.10
2018-06-29T04:16:06.864Z,49.80
2018-06-29T04:16:40.463Z,49.70
2018-06-29T04:17:15.329Z,49.80
2018-06-29T04:17:49.127Z,49.80
2018-06-29T04:18:22.666Z,50.10
2018-06-29T04:18:56.224Z,49.70
2018-06-29T04:19:30.352Z,49.80
2018-06-29T04:20:04.544Z,49.90
2018-06-29T04:20:38.157Z,49.80
2018-06-29T04:21:11.799Z,49.90
2018-06-29T04:21:46.083Z,49.90
2018-06-29T04:22:20.085Z,49.90
2018-06-29T04:22:54.311Z,50.00
2018-06-29T04:23:27.978Z,50.10
2018-06-29T04:24:02.014Z,50.10
2018-06-29T04:24:35.751Z,49.90
2018-06-29T04:25:09.967Z,50.00
2018-06-29T04:25:43.552Z,49.80
2018-06-29T04:26:17.839Z,50.00
2018-06-29T04:27:25.212Z,50.80
2018-06-29T04:27:58.880Z,50.20
2018-06-29T04:28:33.104Z,50.00
2018-06-29T04:29:07.188Z,50.00
2018-06-29T04:29:41.437Z,49.80
2018-06-29T04:30:15.090Z,50.00
2018-06-29T04:30:49.324Z,50.20
2018-06-29T04:31:23.116Z,50.10
2018-06-29T04:31:58.649Z,50.20
2018-06-29T04:32:32.923Z,50.20
2018-06-29T04:34:13.488Z,51.00
2018-06-29T04:34:47.101Z,50.30
2018-06-29T04:35:22.132Z,50.10
2018-06-29T04:35:55.732Z,50.10
2018-06-29T04:36:29.427Z,50.20
2018-06-29T04:37:03.513Z,50.20
2018-06-29T04:37:37.094Z,50.20
2018-06-29T04:38:11.464Z,50.20
2018-06-29T04:38:45.375Z,50.10
2018-06-29T04:39:18.977Z,50.20
2018-06-29T04:39:54.612Z,50.30
2018-06-29T04:40:28.324Z,50.40
2018-06-29T04:41:01.888Z,50.60
2018-06-29T04:41:36.640Z,50.60
2018-06-29T04:42:10.215Z,50.50
2018-06-29T04:42:44.448Z,50.30
2018-06-29T04:43:18.033Z,50.30
2018-06-29T04:43:53.187Z,50.40
2018-06-29T04:44:26.815Z,51.00
2018-06-29T04:45:00.365Z,50.40
2018-06-29T04:45:35.795Z,50.40
2018-06-29T04:46:10.057Z,50.30
2018-06-29T04:46:43.623Z,50.30
2018-06-29T04:47:17.615Z,50.30
2018-06-29T04:47:51.684Z,50.30
2018-06-29T04:48:25.277Z,50.30
2018-06-29T04:48:58.885Z,50.10
2018-06-29T04:49:33.677Z,50.20
2018-06-29T04:50:08.012Z,50.20
2018-06-29T04:50:41.589Z,50.20
2018-06-29T04:51:15.932Z,50.30
2018-06-29T04:51:49.533Z,50.60
2018-06-29T04:52:23.130Z,50.40
2018-06-29T04:52:56.782Z,50.60
2018-06-29T04:53:30.395Z,50.30
2018-06-29T04:54:03.997Z,50.20
2018-06-29T04:54:37.893Z,50.60
2018-06-29T04:55:12.463Z,50.40
2018-06-29T04:55:46.107Z,50.50
2018-06-29T04:56:19.692Z,50.40
2018-06-29T04:56:53.283Z,50.60
2018-06-29T04:57:26.798Z,50.40
2018-06-29T04:58:00.636Z,50.60
2018-06-29T04:58:34.305Z,50.30
2018-06-29T04:59:07.919Z,50.90
2018-06-29T04:59:42.221Z,50.40
2018-06-29T05:00:17.160Z,49.90
2018-06-29T05:00:51.878Z,50.60
2018-06-29T05:01:25.431Z,50.60
2018-06-29T05:01:59.540Z,50.70
2018-06-29T05:02:33.245Z,50.60
2018-06-29T05:03:07.395Z,50.60
2018-06-29T05:03:41.592Z,50.60
2018-06-29T05:04:15.869Z,50.30
2018-06-29T05:04:49.571Z,50.40
2018-06-29T05:05:23.238Z,50.50
2018-06-29T05:05:56.820Z,50.60
2018-06-29T05:06:30.437Z,50.40
2018-06-29T05:07:04.108Z,50.40
2018-06-29T05:07:37.663Z,50.30
2018-06-29T05:08:11.287Z,50.30
2018-06-29T05:08:44.807Z,50.60
2018-06-29T05:09:18.497Z,50.40
2018-06-29T05:09:53.860Z,50.20
2018-06-29T05:10:28.071Z,50.30
2018-06-29T05:11:01.706Z,50.40
2018-06-29T05:11:35.623Z,50.30
2018-06-29T05:12:10.319Z,50.60
2018-06-29T05:12:44.668Z,50.70
2018-06-29T05:13:18.288Z,51.30
2018-06-29T05:13:52.190Z,50.50
2018-06-29T05:14:25.800Z,50.30
2018-06-29T05:14:59.459Z,50.50
2018-06-29T05:15:33.195Z,50.50
2018-06-29T05:16:06.871Z,50.40
2018-06-29T05:16:40.677Z,50.60
2018-06-29T05:17:14.281Z,50.50
2018-06-29T05:17:47.988Z,50.50
2018-06-29T05:18:22.214Z,50.70
2018-06-29T05:18:56.157Z,50.20
2018-06-29T05:19:30.188Z,50.50
2018-06-29T05:20:04.376Z,50.40
2018-06-29T05:20:38.620Z,50.50
2018-06-29T05:21:12.571Z,50.20
2018-06-29T05:21:46.154Z,50.60
2018-06-29T05:22:20.007Z,50.40
2018-06-29T05:22:53.597Z,50.80
2018-06-29T05:23:27.980Z,50.80
2018-06-29T05:24:01.607Z,50.60
2018-06-29T05:24:35.351Z,50.70
2018-06-29T05:25:10.347Z,50.40
2018-06-29T05:25:44.548Z,50.60
2018-06-29T05:26:19.413Z,50.50
2018-06-29T05:26:53.060Z,50.50
2018-06-29T05:27:27.737Z,50.60
2018-06-29T05:28:02.017Z,50.40
2018-06-29T05:28:35.761Z,50.40
2018-06-29T05:29:09.746Z,50.40
2018-06-29T05:29:43.375Z,50.50
2018-06-29T05:30:16.988Z,50.40
2018-06-29T05:30:50.586Z,50.50
2018-06-29T05:31:24.160Z,50.50
2018-06-29T05:31:57.779Z,50.40
2018-06-29T05:32:32.035Z,50.30
2018-06-29T05:33:06.946Z,50.30
2018-06-29T05:33:40.508Z,50.00
2018-06-29T05:34:14.604Z,50.60
2018-06-29T05:34:48.506Z,50.30
2018-06-29T05:35:22.312Z,50.30
2018-06-29T05:36:29.144Z,51.20
2018-06-29T05:37:02.767Z,50.40
2018-06-29T05:38:11.687Z,51.00
2018-06-29T05:38:45.302Z,50.50
2018-06-29T05:39:18.914Z,50.30
2018-06-29T05:39:53.216Z,50.20
2018-06-29T05:40:26.810Z,50.30
2018-06-29T05:41:01.449Z,50.30
2018-06-29T05:41:35.103Z,50.30
2018-06-29T05:42:09.571Z,50.30
2018-06-29T05:42:43.200Z,50.40
2018-06-29T05:43:18.278Z,50.30
2018-06-29T05:43:53.765Z,50.30
2018-06-29T05:44:27.951Z,50.40
2018-06-29T05:45:02.071Z,50.30
2018-06-29T05:45:36.164Z,50.20
2018-06-29T05:46:09.948Z,50.20
2018-06-29T05:46:45.075Z,50.60
2018-06-29T05:47:18.733Z,50.10
2018-06-29T05:47:52.282Z,50.10
2018-06-29T05:48:26.526Z,50.00
2018-06-29T05:49:00.199Z,50.10
2018-06-29T05:49:34.368Z,49.90
2018-06-29T05:50:08.020Z,50.00
2018-06-29T05:50:41.671Z,50.00
2018-06-29T05:51:15.312Z,50.90
2018-06-29T05:51:48.932Z,50.10
2018-06-29T05:52:22.493Z,50.20
2018-06-29T05:52:56.737Z,50.40
2018-06-29T05:53:31.251Z,50.40
2018-06-29T05:54:05.115Z,50.40
2018-06-29T05:54:38.667Z,50.60
2018-06-29T05:55:13.131Z,50.50
2018-06-29T05:55:46.769Z,50.50
2018-06-29T05:56:20.885Z,50.50
2018-06-29T05:56:54.456Z,50.50
2018-06-29T05:57:28.518Z,50.40
2018-06-29T05:58:02.262Z,50.20
2018-06-29T05:58:36.608Z,50.30
2018-06-29T05:59:10.400Z,50.20
2018-06-29T05:59:43.931Z,50.20
2018-06-29T06:00:18.259Z,50.10
2018-06-29T06:00:52.644Z,50.20
2018-06-29T06:01:26.307Z,50.00
2018-06-29T06:01:59.933Z,50.20
2018-06-29T06:02:35.120Z,50.00
2018-06-29T06:03:10.180Z,50.20
2018-06-29T06:03:44.505Z,50.20
2018-06-29T06:04:18.610Z,50.10
2018-06-29T06:04:52.944Z,50.20
2018-06-29T06:05:26.639Z,50.20
2018-06-29T06:06:00.312Z,50.10
2018-06-29T06:07:07.527Z,50.70
2018-06-29T06:07:41.594Z,50.20
2018-06-29T06:08:15.231Z,50.00
2018-06-29T06:08:48.848Z,49.90
2018-06-29T06:09:22.473Z,50.00
2018-06-29T06:09:56.162Z,49.90
2018-06-29T06:10:30.393Z,50.00
2018-06-29T06:11:05.249Z,49.90
2018-06-29T06:11:38.811Z,50.00
2018-06-29T06:12:13.419Z,50.00
2018-06-29T06:12:47.056Z,50.10
2018-06-29T06:13:20.807Z,50.10
2018-06-29T06:13:54.413Z,50.00
2018-06-29T06:14:28.024Z,50.10
2018-06-29T06:15:02.244Z,50.10
2018-06-29T06:15:35.879Z,50.00
2018-06-29T06:16:09.539Z,50.20
2018-06-29T06:16:43.416Z,50.00
2018-06-29T06:17:17.494Z,50.00
2018-06-29T06:17:51.063Z,49.90
2018-06-29T06:18:24.915Z,50.10
2018-06-29T06:19:09.546Z,50.10
2018-06-29T06:19:54.376Z,50.60
2018-06-29T06:20:28.378Z,50.60
2018-06-29T06:21:01.972Z,49.90
2018-06-29T06:22:09.843Z,50.60
2018-06-29T06:22:45.069Z,50.00
2018-06-29T06:23:20.941Z,50.10
2018-06-29T06:23:54.568Z,49.90
2018-06-29T06:24:28.201Z,49.90
2018-06-29T06:25:02.128Z,49.90
2018-06-29T06:25:35.797Z,49.80
2018-06-29T06:26:09.405Z,49.60
2018-06-29T06:26:43.090Z,49.50
2018-06-29T06:27:16.644Z,49.50
2018-06-29T06:27:52.109Z,49.70
2018-06-29T06:28:25.736Z,49.60
2018-06-29T06:28:59.889Z,49.70
2018-06-29T06:29:33.450Z,49.60
2018-06-29T06:30:41.609Z,49.70
2018-06-29T06:31:15.192Z,49.40
2018-06-29T06:31:49.981Z,49.40
2018-06-29T06:32:23.698Z,49.50
2018-06-29T06:32:57.286Z,49.50
2018-06-29T06:33:31.302Z,49.50
2018-06-29T06:34:05.536Z,49.60
2018-06-29T06:34:39.606Z,49.60
2018-06-29T06:35:13.977Z,49.60
2018-06-29T06:35:47.738Z,49.60
2018-06-29T06:36:21.341Z,49.50
2018-06-29T06:36:54.960Z,49.70
2018-06-29T06:37:29.160Z,49.70
2018-06-29T06:38:03.661Z,49.80
2018-06-29T06:38:37.209Z,49.80
2018-06-29T06:39:45.337Z,49.90
2018-06-29T06:40:18.912Z,49.70
2018-06-29T06:40:52.528Z,49.70
2018-06-29T06:41:26.130Z,49.70
2018-06-29T06:41:59.790Z,49.90
2018-06-29T06:42:33.824Z,49.90
2018-06-29T06:43:07.517Z,49.90
2018-06-29T06:43:41.660Z,49.80
2018-06-29T06:44:15.345Z,49.70
2018-06-29T06:44:50.212Z,49.60
2018-06-29T06:45:23.971Z,49.50
2018-06-29T06:45:58.309Z,49.50
2018-06-29T06:46:31.935Z,49.60
2018-06-29T06:47:06.181Z,49.40
2018-06-29T06:47:40.432Z,49.50
2018-06-29T06:48:14.715Z,49.40
2018-06-29T06:48:49.216Z,49.30
2018-06-29T06:49:23.570Z,49.20
2018-06-29T06:49:58.971Z,49.00
2018-06-29T06:50:32.642Z,49.00
2018-06-29T06:51:06.299Z,49.00
2018-06-29T06:51:39.965Z,49.00
2018-06-29T06:52:13.649Z,48.90
2018-06-29T06:52:47.226Z,49.00
2018-06-29T06:53:20.803Z,49.10
2018-06-29T06:53:54.413Z,49.70
2018-06-29T06:54:28.149Z,48.80
2018-06-29T06:55:01.762Z,49.00
2018-06-29T06:55:36.203Z,49.00
2018-06-29T06:56:43.730Z,48.90
2018-06-29T06:57:17.851Z,48.80
2018-06-29T06:57:52.193Z,48.70
2018-06-29T06:58:26.221Z,48.60
2018-06-29T06:58:59.825Z,48.60
2018-06-29T06:59:33.610Z,48.50
2018-06-29T07:00:07.723Z,48.50
2018-06-29T07:00:42.347Z,48.60
2018-06-29T07:01:15.935Z,48.60
2018-06-29T07:01:49.596Z,48.40
2018-06-29T07:02:23.182Z,48.30
2018-06-29T07:02:57.361Z,48.40
2018-06-29T07:03:31.917Z,48.30
2018-06-29T07:04:06.403Z,48.30
2018-06-29T07:04:40.101Z,48.10
2018-06-29T07:05:13.658Z,48.00
2018-06-29T07:05:47.843Z,48.00
2018-06-29T07:06:54.712Z,47.80
2018-06-29T07:07:28.339Z,47.80
2018-06-29T07:08:01.967Z,47.90
2018-06-29T07:08:35.575Z,47.90
2018-06-29T07:09:12.077Z,47.90
2018-06-29T07:09:45.714Z,47.90
2018-06-29T07:10:19.411Z,47.90
2018-06-29T07:11:26.816Z,47.90
2018-06-29T07:12:01.320Z,47.90
2018-06-29T07:12:34.936Z,47.80
2018-06-29T07:13:10.444Z,47.80
2018-06-29T07:13:44.755Z,47.70
2018-06-29T07:14:18.399Z,47.80
2018-06-29T07:14:51.930Z,47.80
2018-06-29T07:15:25.547Z,47.80
2018-06-29T07:15:59.065Z,47.90
2018-06-29T07:16:33.569Z,47.90
2018-06-29T07:17:07.959Z,47.80
2018-06-29T07:17:42.047Z,47.60
2018-06-29T07:18:16.451Z,47.40
2018-06-29T07:18:50.119Z,47.40
2018-06-29T07:19:23.697Z,47.40
2018-06-29T07:19:57.328Z,47.50
2018-06-29T07:20:31.142Z,47.50
2018-06-29T07:21:05.253Z,47.30
2018-06-29T07:21:38.824Z,47.30
2018-06-29T07:22:12.433Z,47.40
2018-06-29T07:22:46.024Z,47.50
2018-06-29T07:23:19.663Z,47.50
2018-06-29T07:23:54.442Z,47.40
2018-06-29T07:24:29.641Z,47.40
2018-06-29T07:25:03.957Z,47.20
2018-06-29T07:25:38.502Z,47.10
2018-06-29T07:26:12.076Z,47.10
2018-06-29T07:26:45.736Z,47.00
2018-06-29T07:27:19.368Z,46.80
2018-06-29T07:27:53.935Z,46.50
2018-06-29T07:28:28.236Z,46.40
2018-06-29T07:29:35.615Z,47.20
2018-06-29T07:30:09.954Z,46.20
2018-06-29T07:30:44.456Z,46.10
2018-06-29T07:31:18.957Z,46.00